Eurus Lima — A8MH9 — position and weather

sailwx.info

Track history (hours):
 
Tides and Currents Weather Stations Pressure Air Temp Water Temp Dewpoint Dewpoint Depression Visibility Wind Speed Wind Dir Waves Ship Positions

Eurus Lima (Liberia)

Last reported at 2014-Sep-25 08:33 UTC. Time now 2014-Oct-02 02:27 UTC.
Position N 25°20' W 080°02'.

Type: Ship. MMSI: 636013342.

Date/timePositionNaut miles runAvg speedWind from/ knotsBaromVisibWave heightAir tempDewpointWater temp
2014-Sep-25 08:33N 25°20' W 080°02'1717.5
2014-Sep-25 07:33N 25°38' W 080°01'1717.2
2014-Sep-25 06:33N 25°55' W 080°02'1211.6
2014-Sep-25 05:33N 26°06' W 080°07'1 0.8
2014-Sep-25 04:31N 26°05' W 080°07'0 0.0
2014-Sep-25 03:24N 26°05' W 080°07'0 0.0
2014-Sep-25 02:33N 26°05' W 080°07'0 0.0
2014-Sep-25 01:24N 26°05' W 080°07'0 0.0
2014-Sep-25 00:32N 26°05' W 080°07'0 0.0
2014-Sep-24 23:29N 26°05' W 080°07'0 0.0
2014-Sep-24 22:31N 26°05' W 080°07'0 0.0
2014-Sep-24 21:28N 26°05' W 080°07'0 0.0
2014-Sep-24 20:33N 26°05' W 080°07'0 0.0
2014-Sep-24 19:33N 26°05' W 080°07'0 0.0
2014-Sep-24 18:24N 26°05' W 080°07'0 0.0
2014-Sep-24 17:32N 26°05' W 080°07'0 0.0
2014-Sep-24 16:29N 26°05' W 080°07'0 0.0
2014-Sep-24 15:31N 26°05' W 080°07'0 0.0
2014-Sep-24 14:31N 26°05' W 080°07'0 0.0
2014-Sep-24 13:33N 26°05' W 080°07'0 0.0
2014-Sep-24 12:30N 26°05' W 080°07'0 0.0
2014-Sep-24 11:23N 26°05' W 080°07'0 0.0
2014-Sep-24 10:32N 26°05' W 080°07'0 0.0
2014-Sep-24 09:26N 26°05' W 080°07'1 0.6
2014-Sep-24 08:33N 26°05' W 080°07'6 6.1
2014-Sep-24 07:33N 26°04' W 080°00'1312.5
2014-Sep-24 06:33N 25°52' W 079°55'8 7.9
2014-Sep-24 05:33N 25°45' W 079°51'3 3.0
2014-Sep-24 04:33N 25°42' W 079°51'3 2.7
2014-Sep-24 03:25N 25°39' W 079°51'  
Track history (hours):
 
Tides and Currents Weather Stations Pressure Air Temp Water Temp Dewpoint Dewpoint Depression Visibility Wind Speed Wind Dir Waves Ship Positions

Eurus Lima (Liberia)

Last reported at 2014-Sep-25 08:33 UTC. Time now 2014-Oct-02 02:27 UTC.
Position N 25°20' W 080°02'.

Type: Ship. MMSI: 636013342.

Date/timePositionNaut miles runAvg speedWind from/ knotsBaromVisibWave heightAir tempDewpointWater temp
2014-Sep-25 08:33N 25°20' W 080°02'1717.5
2014-Sep-25 07:33N 25°38' W 080°01'1717.2
2014-Sep-25 06:33N 25°55' W 080°02'1211.6
2014-Sep-25 05:33N 26°06' W 080°07'1 0.8
2014-Sep-25 04:31N 26°05' W 080°07'0 0.0
2014-Sep-25 03:24N 26°05' W 080°07'0 0.0
2014-Sep-25 02:33N 26°05' W 080°07'0 0.0
2014-Sep-25 01:24N 26°05' W 080°07'0 0.0
2014-Sep-25 00:32N 26°05' W 080°07'0 0.0
2014-Sep-24 23:29N 26°05' W 080°07'0 0.0
2014-Sep-24 22:31N 26°05' W 080°07'0 0.0
2014-Sep-24 21:28N 26°05' W 080°07'0 0.0
2014-Sep-24 20:33N 26°05' W 080°07'0 0.0
2014-Sep-24 19:33N 26°05' W 080°07'0 0.0
2014-Sep-24 18:24N 26°05' W 080°07'0 0.0
2014-Sep-24 17:32N 26°05' W 080°07'0 0.0
2014-Sep-24 16:29N 26°05' W 080°07'0 0.0
2014-Sep-24 15:31N 26°05' W 080°07'0 0.0
2014-Sep-24 14:31N 26°05' W 080°07'0 0.0
2014-Sep-24 13:33N 26°05' W 080°07'0 0.0
2014-Sep-24 12:30N 26°05' W 080°07'0 0.0
2014-Sep-24 11:23N 26°05' W 080°07'0 0.0
2014-Sep-24 10:32N 26°05' W 080°07'0 0.0
2014-Sep-24 09:26N 26°05' W 080°07'1 0.6
2014-Sep-24 08:33N 26°05' W 080°07'6 6.1
2014-Sep-24 07:33N 26°04' W 080°00'1312.5
2014-Sep-24 06:33N 25°52' W 079°55'8 7.9
2014-Sep-24 05:33N 25°45' W 079°51'3 3.0
2014-Sep-24 04:33N 25°42' W 079°51'3 2.7
2014-Sep-24 03:25N 25°39' W 079°51'  

Dump ship's entire track history